Time;durP1;ratioP1;P1;durP2;ratioP2;P2;SDS_P1;SDS_P2;PMS_P1;PMS_P2;Temp;Humidity;BMP_temperature;BMP_pressure;BME280_temperature;BME280_humidity;BME280_pressure;Samples;Min_cycle;Max_cycle;Signal;HPM_P1;HPM_P2
2021/06/04 00:00:46;;;;;;;6.55;5.55;;;;;;;;;;5095414;28;20036;-61
2021/06/04 00:03:18;;;;;;;6.05;5.45;;;;;;;;;;5077269;28;20055;-60
2021/06/04 00:05:46;;;;;;;4.90;3.95;;;;;;;;;;5095143;28;20489;-60
2021/06/04 00:08:12;;;;;;;4.78;3.95;;;;;;;;;;5095208;28;20058;-63
2021/06/04 00:10:39;;;;;;;4.80;4.30;;;;;;;;;;5095029;28;20027;-64
2021/06/04 00:13:16;;;;;;;5.68;4.65;;;;;;;;;;5094192;28;20032;-61
2021/06/04 00:15:42;;;;;;;4.57;3.92;;;;;;;;;;5095261;28;20032;-60
2021/06/04 00:18:08;;;;;;;4.22;3.83;;;;;;;;;;5095033;28;20023;-61
2021/06/04 00:20:33;;;;;;;4.35;4.05;;;;;;;;;;5094922;28;20447;-60
2021/06/04 00:22:59;;;;;;;4.68;4.10;;;;;;;;;;5094973;28;20103;-60
2021/06/04 00:25:25;;;;;;;5.45;4.18;;;;;;;;;;5094877;28;20474;-60
2021/06/04 00:27:51;;;;;;;4.20;3.90;;;;;;;;;;5094621;28;20035;-61
2021/06/04 00:30:17;;;;;;;4.85;3.78;;;;;;;;;;5094714;28;20032;-60
2021/06/04 00:32:42;;;;;;;3.65;3.35;;;;;;;;;;5094561;28;20016;-61
2021/06/04 00:35:09;;;;;;;4.70;4.30;;;;;;;;;;5094824;28;20035;-60
2021/06/04 00:37:37;;;;;;;4.25;3.85;;;;;;;;;;5094904;28;20062;-60
2021/06/04 00:40:09;;;;;;;4.13;3.83;;;;;;;;;;5094509;28;20103;-61
2021/06/04 00:42:36;;;;;;;4.30;4.00;;;;;;;;;;5094190;28;20031;-64
2021/06/04 00:45:03;;;;;;;9.68;4.15;;;;;;;;;;5056324;28;20406;-63
2021/06/04 00:47:30;;;;;;;4.22;3.90;;;;;;;;;;5056189;28;20056;-64
2021/06/04 00:49:55;;;;;;;4.45;3.88;;;;;;;;;;5073839;28;20059;-63
2021/06/04 00:52:24;;;;;;;4.70;4.28;;;;;;;;;;5074084;28;20028;-63
2021/06/04 00:54:51;;;;;;;5.70;4.22;;;;;;;;;;5055857;28;20012;-63
2021/06/04 00:57:17;;;;;;;7.75;4.15;;;;;;;;;;5055931;28;20028;-64
2021/06/04 00:59:43;;;;;;;5.32;4.20;;;;;;;;;;5073778;28;20454;-64
2021/06/04 01:02:21;;;;;;;4.18;3.88;;;;;;;;;;5056114;28;20028;-64
2021/06/04 01:04:48;;;;;;;5.90;3.65;;;;;;;;;;5056027;28;20443;-64
2021/06/04 01:07:17;;;;;;;5.30;3.75;;;;;;;;;;5055859;28;20015;-63
2021/06/04 01:09:43;;;;;;;4.50;3.77;;;;;;;;;;5074013;28;20082;-64
2021/06/04 01:12:08;;;;;;;4.13;3.75;;;;;;;;;;5073662;28;20462;-63
2021/06/04 01:14:38;;;;;;;4.00;3.67;;;;;;;;;;5055579;28;20057;-64
2021/06/04 01:17:08;;;;;;;3.75;3.45;;;;;;;;;;5055567;28;20074;-63
2021/06/04 01:19:53;;;;;;;4.05;3.63;;;;;;;;;;5073646;28;20025;-64
2021/06/04 01:22:41;;;;;;;3.83;3.53;;;;;;;;;;5073284;28;20123;-63
2021/06/04 01:25:26;;;;;;;3.50;3.25;;;;;;;;;;5015781;28;20094;-64
2021/06/04 01:27:53;;;;;;;3.60;3.30;;;;;;;;;;5055441;28;20025;-64
2021/06/04 01:30:38;;;;;;;4.00;3.58;;;;;;;;;;5055591;28;20052;-64
2021/06/04 01:33:10;;;;;;;3.88;3.58;;;;;;;;;;5055685;28;20032;-63
2021/06/04 01:35:44;;;;;;;4.03;3.22;;;;;;;;;;5073481;28;20475;-63
2021/06/04 01:38:14;;;;;;;4.50;3.97;;;;;;;;;;5055251;28;20415;-63
2021/06/04 01:40:41;;;;;;;3.60;3.30;;;;;;;;;;5055454;28;20409;-63
2021/06/04 01:43:12;;;;;;;3.47;3.22;;;;;;;;;;5077196;28;20044;-64
2021/06/04 01:45:40;;;;;;;2.97;2.78;;;;;;;;;;5093558;28;20055;-63
2021/06/04 01:48:21;;;;;;;3.53;3.33;;;;;;;;;;5075679;28;20473;-63
2021/06/04 01:50:58;;;;;;;3.50;3.20;;;;;;;;;;5093490;28;20039;-63
2021/06/04 01:53:29;;;;;;;3.47;3.17;;;;;;;;;;5075048;28;20385;-60
2021/06/04 01:56:26;;;;;;;4.32;3.20;;;;;;;;;;5093299;28;20032;-61
2021/06/04 01:59:02;;;;;;;3.30;3.08;;;;;;;;;;5058109;28;20040;-60
2021/06/04 02:01:34;;;;;;;3.40;3.20;;;;;;;;;;5093650;28;20122;-60
2021/06/04 02:04:10;;;;;;;4.47;3.67;;;;;;;;;;5075209;28;20085;-60
2021/06/04 02:06:44;;;;;;;3.42;3.15;;;;;;;;;;5075340;28;20032;-60
2021/06/04 02:09:13;;;;;;;3.67;3.30;;;;;;;;;;5075392;28;20036;-60
2021/06/04 02:11:46;;;;;;;3.50;3.30;;;;;;;;;;5059329;28;20051;-60
2021/06/04 02:14:16;;;;;;;;;;;;;;;;;;5076775;28;20032;-60
2021/06/04 02:17:01;;;;;;;3.78;3.42;;;;;;;;;;5075404;28;19908;-61
2021/06/04 02:19:40;;;;;;;3.90;3.35;;;;;;;;;;5092974;28;20050;-61
2021/06/04 02:22:25;;;;;;;3.83;3.53;;;;;;;;;;5075238;28;20101;-60
2021/06/04 02:25:04;;;;;;;3.60;3.30;;;;;;;;;;5091939;28;20035;-61
2021/06/04 02:27:39;;;;;;;3.88;3.58;;;;;;;;;;5075203;28;20036;-61
2021/06/04 02:30:22;;;;;;;5.95;3.95;;;;;;;;;;5074785;28;20058;-60
2021/06/04 02:32:47;;;;;;;4.13;3.72;;;;;;;;;;5093034;28;20036;-61
2021/06/04 02:35:17;;;;;;;4.22;3.92;;;;;;;;;;5075656;28;20066;-60
2021/06/04 02:37:45;;;;;;;4.18;3.88;;;;;;;;;;5097016;28;20395;-61
2021/06/04 02:40:24;;;;;;;4.33;3.83;;;;;;;;;;5078739;28;20107;-60
2021/06/04 02:42:52;;;;;;;4.05;3.65;;;;;;;;;;5078370;28;20118;-60
2021/06/04 02:45:28;;;;;;;4.67;3.77;;;;;;;;;;5078342;28;20115;-60
2021/06/04 02:47:56;;;;;;;4.53;4.18;;;;;;;;;;5078527;28;20274;-61
2021/06/04 02:50:28;;;;;;;3.83;3.50;;;;;;;;;;5078309;28;20012;-60
2021/06/04 02:53:11;;;;;;;4.35;3.92;;;;;;;;;;5078220;28;20062;-60
2021/06/04 02:55:38;;;;;;;3.95;3.45;;;;;;;;;;5077974;28;20036;-60
2021/06/04 02:58:07;;;;;;;3.90;3.60;;;;;;;;;;5078457;28;20058;-60
2021/06/04 03:00:42;;;;;;;4.85;3.22;;;;;;;;;;5078335;28;20031;-60
2021/06/04 03:03:15;;;;;;;3.33;3.13;;;;;;;;;;5078431;28;20470;-60
2021/06/04 03:05:41;;;;;;;5.78;3.55;;;;;;;;;;5077882;28;20031;-60
2021/06/04 03:08:07;;;;;;;3.28;2.97;;;;;;;;;;5078061;28;20397;-60
2021/06/04 03:10:34;;;;;;;3.50;3.20;;;;;;;;;;5096416;28;20107;-60
2021/06/04 03:13:02;;;;;;;3.38;3.17;;;;;;;;;;5078177;28;20027;-61
2021/06/04 03:15:31;;;;;;;;;;;;;;;;;;5078812;28;20020;-60
2021/06/04 03:17:57;;;;;;;3.75;3.15;;;;;;;;;;5078116;28;19910;-61
2021/06/04 03:20:27;;;;;;;3.28;2.97;;;;;;;;;;5078098;28;20027;-61
2021/06/04 03:22:54;;;;;;;4.95;3.25;;;;;;;;;;5077974;28;20528;-60
2021/06/04 03:25:27;;;;;;;3.40;3.20;;;;;;;;;;5061608;28;20059;-60
2021/06/04 03:27:57;;;;;;;3.50;3.30;;;;;;;;;;5077909;28;20028;-60
2021/06/04 03:30:31;;;;;;;3.15;2.78;;;;;;;;;;5095906;28;20407;-61
2021/06/04 03:32:57;;;;;;;3.38;2.97;;;;;;;;;;5077828;28;20020;-62
2021/06/04 03:35:23;;;;;;;4.70;3.45;;;;;;;;;;5095836;28;20522;-64
2021/06/04 03:37:52;;;;;;;3.83;3.03;;;;;;;;;;5077456;28;20035;-59
2021/06/04 03:40:19;;;;;;;5.40;2.95;;;;;;;;;;5095249;28;20628;-59
2021/06/04 03:42:47;;;;;;;4.63;3.25;;;;;;;;;;5077088;28;20067;-62
2021/06/04 03:45:14;;;;;;;3.80;3.50;;;;;;;;;;5095780;28;20032;-64
2021/06/04 03:47:41;;;;;;;4.20;3.28;;;;;;;;;;5077077;28;20043;-72
2021/06/04 03:50:08;;;;;;;3.47;3.17;;;;;;;;;;5077121;28;20470;-72
2021/06/04 03:52:34;;;;;;;3.30;3.05;;;;;;;;;;5077295;28;20035;-72
2021/06/04 03:54:59;;;;;;;3.28;2.97;;;;;;;;;;5077658;28;20366;-72
2021/06/04 03:57:28;;;;;;;3.35;3.10;;;;;;;;;;5095753;28;20368;-72
2021/06/04 03:59:54;;;;;;;5.00;3.20;;;;;;;;;;5095020;28;20026;-72
2021/06/04 04:02:21;;;;;;;4.57;3.30;;;;;;;;;;5095087;28;20385;-72
2021/06/04 04:04:47;;;;;;;3.00;2.80;;;;;;;;;;5095133;28;20035;-72
2021/06/04 04:07:13;;;;;;;3.42;3.08;;;;;;;;;;5076845;28;20359;-72
2021/06/04 04:09:39;;;;;;;4.90;3.60;;;;;;;;;;5077167;28;20031;-72
2021/06/04 04:12:05;;;;;;;5.78;3.20;;;;;;;;;;5095153;28;20099;-72
2021/06/04 04:14:33;;;;;;;4.15;3.70;;;;;;;;;;5094919;28;20116;-72
2021/06/04 04:16:58;;;;;;;4.85;3.22;;;;;;;;;;5094531;28;20024;-72
2021/06/04 04:19:24;;;;;;;4.45;2.97;;;;;;;;;;5094005;28;20082;-72
2021/06/04 04:21:51;;;;;;;4.30;3.17;;;;;;;;;;5093934;28;20044;-72
2021/06/04 04:24:18;;;;;;;3.08;2.78;;;;;;;;;;5073439;28;20012;-72
2021/06/04 04:26:44;;;;;;;2.97;2.70;;;;;;;;;;5094683;28;20032;-72
2021/06/04 04:29:10;;;;;;;3.20;3.00;;;;;;;;;;5094881;28;20425;-72
2021/06/04 04:31:37;;;;;;;3.60;3.10;;;;;;;;;;5094806;28;20024;-72
2021/06/04 04:34:05;;;;;;;2.85;2.65;;;;;;;;;;5094777;28;20093;-72
2021/06/04 04:36:33;;;;;;;5.20;2.97;;;;;;;;;;5094744;28;20020;-72
2021/06/04 04:38:59;;;;;;;4.00;3.17;;;;;;;;;;5094300;28;20074;-72
2021/06/04 04:41:24;;;;;;;3.10;2.90;;;;;;;;;;5094102;28;20486;-72
2021/06/04 04:43:51;;;;;;;3.13;2.80;;;;;;;;;;5075441;28;20816;-72
2021/06/04 04:46:18;;;;;;;3.20;3.00;;;;;;;;;;5094015;28;20020;-72
2021/06/04 04:48:43;;;;;;;4.32;2.80;;;;;;;;;;5094098;28;20083;-72
2021/06/04 04:51:10;;;;;;;3.33;3.03;;;;;;;;;;5093972;28;20031;-71
2021/06/04 04:53:36;;;;;;;3.28;2.97;;;;;;;;;;5093844;28;20020;-72
2021/06/04 04:56:03;;;;;;;3.17;2.88;;;;;;;;;;5075869;28;20035;-71
2021/06/04 04:58:28;;;;;;;2.88;2.70;;;;;;;;;;5093389;28;20024;-72
2021/06/04 05:00:56;;;;;;;2.53;2.42;;;;;;;;;;5075458;28;20028;-72
2021/06/04 05:03:22;;;;;;;7.72;3.10;;;;;;;;;;5075521;28;20059;-71
2021/06/04 05:05:48;;;;;;;3.00;2.75;;;;;;;;;;5093713;28;20024;-72
2021/06/04 05:08:13;;;;;;;3.13;2.67;;;;;;;;;;5093809;28;20043;-71
2021/06/04 05:10:38;;;;;;;3.50;2.70;;;;;;;;;;5093674;28;20466;-72
2021/06/04 05:13:05;;;;;;;3.05;2.50;;;;;;;;;;5093510;28;20031;-72
2021/06/04 05:15:32;;;;;;;2.88;2.67;;;;;;;;;;5093666;28;20385;-71
2021/06/04 05:17:57;;;;;;;3.25;2.78;;;;;;;;;;5093597;28;20077;-72
2021/06/04 05:20:26;;;;;;;2.95;2.75;;;;;;;;;;5092973;28;20048;-71
2021/06/04 05:22:52;;;;;;;2.72;2.53;;;;;;;;;;5092857;28;20028;-71
2021/06/04 05:25:21;;;;;;;4.25;2.88;;;;;;;;;;5074291;28;20032;-71
2021/06/04 05:27:46;;;;;;;3.10;2.72;;;;;;;;;;5093518;28;20054;-72
2021/06/04 05:30:14;;;;;;;2.55;2.35;;;;;;;;;;5093441;28;20032;-71
2021/06/04 05:32:39;;;;;;;3.00;2.80;;;;;;;;;;5093364;28;20028;-71
2021/06/04 05:35:07;;;;;;;4.25;2.72;;;;;;;;;;5093374;28;20024;-72
2021/06/04 05:37:32;;;;;;;2.53;2.33;;;;;;;;;;5093426;28;20102;-72
2021/06/04 05:39:58;;;;;;;2.97;2.78;;;;;;;;;;5093175;28;20059;-72
2021/06/04 05:42:23;;;;;;;3.72;3.30;;;;;;;;;;5093331;28;20051;-72
2021/06/04 05:44:49;;;;;;;3.97;2.95;;;;;;;;;;5093135;28;20040;-72
2021/06/04 05:47:14;;;;;;;5.90;2.80;;;;;;;;;;5093280;28;20027;-71
2021/06/04 05:49:41;;;;;;;3.03;2.80;;;;;;;;;;5093200;28;20032;-72
2021/06/04 05:52:09;;;;;;;3.55;3.20;;;;;;;;;;5093278;28;20382;-71
2021/06/04 05:54:43;;;;;;;2.80;2.50;;;;;;;;;;5075047;28;20474;-71
2021/06/04 05:57:09;;;;;;;2.97;2.67;;;;;;;;;;5093162;28;20078;-71
2021/06/04 05:59:34;;;;;;;3.15;2.88;;;;;;;;;;5093061;28;20017;-71
2021/06/04 06:02:00;;;;;;;4.38;2.88;;;;;;;;;;5093049;28;20020;-71
2021/06/04 06:04:25;;;;;;;4.10;2.83;;;;;;;;;;5093064;28;20023;-71
2021/06/04 06:06:53;;;;;;;2.75;2.55;;;;;;;;;;5092994;28;20555;-71
2021/06/04 06:09:18;;;;;;;2.70;2.30;;;;;;;;;;5093014;28;20020;-71
2021/06/04 06:11:44;;;;;;;3.63;2.70;;;;;;;;;;5096228;28;20028;-72
2021/06/04 06:14:10;;;;;;;3.55;2.78;;;;;;;;;;5096916;28;20020;-71
2021/06/04 06:16:36;;;;;;;3.72;2.50;;;;;;;;;;5097061;28;20024;-71
2021/06/04 06:19:02;;;;;;;2.75;2.58;;;;;;;;;;5096806;28;20388;-71
2021/06/04 06:21:29;;;;;;;4.10;2.60;;;;;;;;;;5096899;28;20500;-71
2021/06/04 06:23:55;;;;;;;3.03;2.70;;;;;;;;;;5078851;28;20408;-71
2021/06/04 06:26:23;;;;;;;4.53;2.72;;;;;;;;;;5096807;28;20028;-71
2021/06/04 06:28:49;;;;;;;2.80;2.38;;;;;;;;;;5096791;28;20031;-71
2021/06/04 06:31:16;;;;;;;4.00;3.00;;;;;;;;;;5096616;28;20036;-71
2021/06/04 06:33:42;;;;;;;2.60;2.40;;;;;;;;;;5096451;28;20020;-71
2021/06/04 06:36:10;;;;;;;2.75;2.55;;;;;;;;;;5078489;28;20032;-71
2021/06/04 06:38:36;;;;;;;2.92;2.40;;;;;;;;;;5096678;28;20047;-71
2021/06/04 06:41:03;;;;;;;2.50;2.30;;;;;;;;;;5096380;28;20509;-71
2021/06/04 06:43:30;;;;;;;2.67;2.33;;;;;;;;;;5096105;28;20040;-72
2021/06/04 06:45:56;;;;;;;5.00;2.72;;;;;;;;;;5096422;28;20062;-71
2021/06/04 06:48:22;;;;;;;2.40;2.15;;;;;;;;;;5096412;28;20036;-71
2021/06/04 06:50:48;;;;;;;4.43;2.60;;;;;;;;;;5096366;28;20038;-72
2021/06/04 06:53:14;;;;;;;5.93;2.58;;;;;;;;;;5096253;28;20020;-71
2021/06/04 06:55:41;;;;;;;6.82;2.92;;;;;;;;;;5096257;28;20051;-71
2021/06/04 06:58:07;;;;;;;5.35;2.50;;;;;;;;;;5078204;28;20031;-71
2021/06/04 07:00:34;;;;;;;22.42;3.58;;;;;;;;;;5096253;28;20118;-71
2021/06/04 07:02:59;;;;;;;5.60;2.50;;;;;;;;;;5096174;28;20381;-71
2021/06/04 07:05:26;;;;;;;4.32;2.40;;;;;;;;;;5096136;28;20128;-72
2021/06/04 07:07:51;;;;;;;3.78;2.35;;;;;;;;;;5095973;28;20032;-71
2021/06/04 07:10:19;;;;;;;5.22;2.42;;;;;;;;;;5095959;28;20540;-71
2021/06/04 07:12:45;;;;;;;2.25;2.00;;;;;;;;;;5077881;28;20059;-72
2021/06/04 07:15:13;;;;;;;3.40;2.20;;;;;;;;;;5095884;28;20052;-71
2021/06/04 07:17:39;;;;;;;2.35;2.20;;;;;;;;;;5095894;28;20020;-71
2021/06/04 07:20:06;;;;;;;2.45;2.25;;;;;;;;;;5095781;28;20024;-71
2021/06/04 07:22:33;;;;;;;2.05;1.95;;;;;;;;;;5094660;28;20046;-71
2021/06/04 07:24:59;;;;;;;2.90;2.10;;;;;;;;;;5095674;28;20035;-71
2021/06/04 07:27:26;;;;;;;2.17;1.80;;;;;;;;;;5095256;28;20025;-72
2021/06/04 07:29:52;;;;;;;3.15;1.90;;;;;;;;;;5095866;28;20039;-72
2021/06/04 07:32:17;;;;;;;2.50;2.30;;;;;;;;;;5095510;28;20020;-72
2021/06/04 07:34:43;;;;;;;2.10;2.00;;;;;;;;;;5095309;28;20078;-71
2021/06/04 07:37:09;;;;;;;2.30;1.73;;;;;;;;;;5095383;28;20023;-71
2021/06/04 07:39:35;;;;;;;1.95;1.85;;;;;;;;;;5095410;28;20028;-72
2021/06/04 07:42:02;;;;;;;2.08;1.98;;;;;;;;;;5095171;28;20020;-71
2021/06/04 07:44:27;;;;;;;1.92;1.75;;;;;;;;;;5095008;28;20048;-71
2021/06/04 07:46:54;;;;;;;2.03;1.90;;;;;;;;;;5095139;28;20440;-71
2021/06/04 07:49:20;;;;;;;1.70;1.60;;;;;;;;;;5095190;28;20032;-71
2021/06/04 07:51:48;;;;;;;2.55;2.00;;;;;;;;;;5095290;28;20024;-71
2021/06/04 07:54:14;;;;;;;4.45;2.25;;;;;;;;;;5095111;28;20028;-71
2021/06/04 07:56:40;;;;;;;4.63;2.20;;;;;;;;;;5095141;28;20016;-71
2021/06/04 07:59:07;;;;;;;2.60;2.33;;;;;;;;;;5095100;28;20111;-71
2021/06/04 08:01:32;;;;;;;3.78;2.13;;;;;;;;;;5076933;28;20047;-71
2021/06/04 08:03:58;;;;;;;2.45;2.25;;;;;;;;;;5095040;28;20533;-72
2021/06/04 08:06:23;;;;;;;4.32;2.35;;;;;;;;;;5076808;28;20386;-71
2021/06/04 08:08:53;;;;;;;3.90;2.55;;;;;;;;;;5060024;28;20110;-71
2021/06/04 08:11:25;;;;;;;2.13;1.93;;;;;;;;;;5094849;28;20085;-72
2021/06/04 08:13:53;;;;;;;2.40;2.30;;;;;;;;;;5094794;28;20035;-71
2021/06/04 08:16:18;;;;;;;2.70;2.60;;;;;;;;;;5094722;28;20389;-71
2021/06/04 08:18:44;;;;;;;2.60;2.50;;;;;;;;;;5094565;28;20111;-71
2021/06/04 08:21:20;;;;;;;2.42;2.20;;;;;;;;;;5094373;28;20024;-72
2021/06/04 08:23:47;;;;;;;4.53;2.70;;;;;;;;;;5094578;28;20028;-71
2021/06/04 08:26:14;;;;;;;4.07;2.50;;;;;;;;;;5094372;28;20110;-71
2021/06/04 08:28:40;;;;;;;3.08;2.65;;;;;;;;;;5094367;28;20032;-72
2021/06/04 08:31:06;;;;;;;3.90;2.40;;;;;;;;;;5076329;28;20024;-71
2021/06/04 08:33:34;;;;;;;3.95;2.25;;;;;;;;;;5094255;28;20433;-71
2021/06/04 08:36:00;;;;;;;2.30;2.20;;;;;;;;;;5094262;28;20015;-71
2021/06/04 08:38:29;;;;;;;5.32;2.10;;;;;;;;;;5094304;28;20111;-71
2021/06/04 08:40:55;;;;;;;4.43;2.03;;;;;;;;;;5094224;28;20474;-71
2021/06/04 08:43:29;;;;;;;3.55;2.38;;;;;;;;;;5093751;28;20110;-72
2021/06/04 08:46:05;;;;;;;3.47;2.38;;;;;;;;;;5093991;28;20036;-71
2021/06/04 08:48:32;;;;;;;3.72;2.17;;;;;;;;;;5094065;28;20123;-71
2021/06/04 08:51:00;;;;;;;2.88;2.33;;;;;;;;;;5094084;28;20519;-71
2021/06/04 08:53:34;;;;;;;2.83;2.60;;;;;;;;;;5094016;28;20085;-71
2021/06/04 08:56:00;;;;;;;2.50;2.13;;;;;;;;;;5094069;28;20030;-71
2021/06/04 08:58:39;;;;;;;2.25;2.05;;;;;;;;;;5093891;28;20095;-71
2021/06/04 09:01:23;;;;;;;2.40;1.90;;;;;;;;;;5093862;28;20549;-71
2021/06/04 09:03:57;;;;;;;2.75;2.17;;;;;;;;;;5093756;28;20043;-71
2021/06/04 09:06:31;;;;;;;2.00;1.80;;;;;;;;;;5093754;28;20032;-71
2021/06/04 09:09:00;;;;;;;1.95;1.65;;;;;;;;;;5075610;28;20051;-71
2021/06/04 09:11:28;;;;;;;2.05;1.95;;;;;;;;;;5093706;28;20421;-71
2021/06/04 09:13:53;;;;;;;2.20;2.10;;;;;;;;;;5093559;28;20034;-71
2021/06/04 09:16:37;;;;;;;2.85;2.50;;;;;;;;;;5093290;28;20103;-71
2021/06/04 09:19:21;;;;;;;6.00;2.85;;;;;;;;;;5093602;28;20027;-71
2021/06/04 09:21:47;;;;;;;2.83;2.53;;;;;;;;;;5093502;28;20027;-71
2021/06/04 09:24:15;;;;;;;5.47;2.90;;;;;;;;;;5075382;28;20114;-71
2021/06/04 09:26:40;;;;;;;4.47;2.63;;;;;;;;;;5093422;28;20086;-71
2021/06/04 09:29:05;;;;;;;2.20;2.10;;;;;;;;;;5093429;28;20012;-71
2021/06/04 09:31:34;;;;;;;2.25;1.98;;;;;;;;;;5093488;28;20028;-71
2021/06/04 09:34:11;;;;;;;2.63;2.42;;;;;;;;;;5075335;28;20390;-71
2021/06/04 09:36:46;;;;;;;3.45;2.40;;;;;;;;;;5093442;28;20025;-71
2021/06/04 09:39:14;;;;;;;2.47;2.38;;;;;;;;;;5092126;28;20062;-71
2021/06/04 09:41:47;;;;;;;2.30;2.08;;;;;;;;;;5093239;28;20012;-71
2021/06/04 09:44:21;;;;;;;2.53;2.22;;;;;;;;;;5074599;28;20048;-71
2021/06/04 09:46:53;;;;;;;2.28;2.10;;;;;;;;;;5092884;28;20028;-71
2021/06/04 09:49:34;;;;;;;2.85;2.30;;;;;;;;;;5093208;28;20028;-71
2021/06/04 09:52:18;;;;;;;2.47;2.03;;;;;;;;;;5093147;28;20028;-71
2021/06/04 09:54:44;;;;;;;2.20;1.70;;;;;;;;;;5093049;28;20486;-71
2021/06/04 09:57:12;;;;;;;2.75;2.40;;;;;;;;;;5093167;28;20038;-71
2021/06/04 09:59:38;;;;;;;3.08;2.25;;;;;;;;;;5093177;28;20024;-71
2021/06/04 10:02:22;;;;;;;2.92;2.20;;;;;;;;;;5093009;28;20028;-71
2021/06/04 10:04:48;;;;;;;2.30;1.95;;;;;;;;;;5074841;28;20039;-71
2021/06/04 10:07:16;;;;;;;2.28;1.98;;;;;;;;;;5093052;28;20017;-71
2021/06/04 10:09:43;;;;;;;2.95;2.25;;;;;;;;;;5092658;28;20028;-71
2021/06/04 10:12:28;;;;;;;2.53;2.30;;;;;;;;;;5075033;28;20482;-71
2021/06/04 10:14:56;;;;;;;2.35;2.15;;;;;;;;;;5092761;28;20122;-71
2021/06/04 10:17:41;;;;;;;2.30;2.17;;;;;;;;;;5092970;28;20374;-71
2021/06/04 10:20:19;;;;;;;2.40;2.25;;;;;;;;;;5092890;28;20032;-71
2021/06/04 10:22:45;;;;;;;5.47;2.30;;;;;;;;;;5092825;28;20028;-71
2021/06/04 10:25:10;;;;;;;2.20;2.10;;;;;;;;;;5092995;28;20024;-71
2021/06/04 10:27:44;;;;;;;2.33;2.03;;;;;;;;;;5074899;28;20051;-71
2021/06/04 10:30:12;;;;;;;2.70;2.50;;;;;;;;;;5092905;28;20020;-71
2021/06/04 10:32:56;;;;;;;1.98;1.77;;;;;;;;;;5092787;28;20022;-71
2021/06/04 10:35:24;;;;;;;3.75;2.00;;;;;;;;;;5092694;28;20020;-71
2021/06/04 10:37:58;;;;;;;11.10;3.45;;;;;;;;;;5092658;28;20020;-71
2021/06/04 10:40:26;;;;;;;5.03;2.10;;;;;;;;;;5092608;28;20024;-71
2021/06/04 10:42:52;;;;;;;4.05;2.33;;;;;;;;;;5092300;28;20028;-72
2021/06/04 10:45:20;;;;;;;2.83;2.08;;;;;;;;;;5092840;28;20026;-71
2021/06/04 10:47:45;;;;;;;2.92;2.30;;;;;;;;;;5092709;28;20553;-71
2021/06/04 10:50:14;;;;;;;4.70;2.90;;;;;;;;;;5092645;28;20108;-71
2021/06/04 10:52:59;;;;;;;4.18;2.35;;;;;;;;;;5092629;28;20386;-71
2021/06/04 10:55:29;;;;;;;3.00;2.80;;;;;;;;;;5092640;28;20050;-71
2021/06/04 10:58:09;;;;;;;2.28;2.08;;;;;;;;;;5094404;28;20042;-71
2021/06/04 11:00:40;;;;;;;7.75;6.30;;;;;;;;;;5096220;28;20474;-71
2021/06/04 11:03:05;;;;;;;;;;;;;;;;;;5096648;28;20085;-71
2021/06/04 11:05:50;;;;;;;4.67;2.27;;;;;;;;;;5096083;28;19908;-71
2021/06/04 11:08:24;;;;;;;2.97;2.45;;;;;;;;;;5077942;28;20319;-71
2021/06/04 11:10:59;;;;;;;2.75;2.45;;;;;;;;;;5077950;28;20055;-71
2021/06/04 11:13:49;;;;;;;4.13;2.28;;;;;;;;;;5095999;28;20107;-71
2021/06/04 11:16:33;;;;;;;3.30;2.20;;;;;;;;;;5096058;28;20500;-71
2021/06/04 11:19:09;;;;;;;4.35;2.45;;;;;;;;;;5095910;28;20304;-71
2021/06/04 11:21:42;;;;;;;6.53;2.78;;;;;;;;;;5095916;28;20031;-71
2021/06/04 11:24:23;;;;;;;3.33;2.60;;;;;;;;;;5095778;28;20028;-71
2021/06/04 11:26:52;;;;;;;2.33;2.22;;;;;;;;;;5095814;28;20032;-71
2021/06/04 11:29:20;;;;;;;2.20;1.75;;;;;;;;;;5095829;28;20058;-71
2021/06/04 11:31:48;;;;;;;2.15;2.03;;;;;;;;;;5095608;28;20103;-71
2021/06/04 11:34:32;;;;;;;4.72;2.50;;;;;;;;;;5095612;28;20114;-71
2021/06/04 11:37:00;;;;;;;6.00;1.90;;;;;;;;;;5095427;28;20027;-71
2021/06/04 11:39:30;;;;;;;2.40;2.30;;;;;;;;;;5095415;28;20099;-71
2021/06/04 11:41:58;;;;;;;2.70;2.30;;;;;;;;;;5095487;28;20070;-71
2021/06/04 11:44:23;;;;;;;2.85;2.40;;;;;;;;;;5076876;28;20097;-71
2021/06/04 11:47:08;;;;;;;2.22;2.13;;;;;;;;;;5095382;28;20119;-71
2021/06/04 11:50:01;;;;;;;3.58;2.50;;;;;;;;;;5095382;28;20089;-71
2021/06/04 11:52:27;;;;;;;2.03;1.92;;;;;;;;;;5054595;28;20071;-71
2021/06/04 11:55:07;;;;;;;4.00;2.20;;;;;;;;;;5095020;28;20052;-71
2021/06/04 11:57:45;;;;;;;7.22;2.40;;;;;;;;;;5095228;28;20497;-71
2021/06/04 12:00:19;;;;;;;2.20;2.05;;;;;;;;;;5076533;28;20028;-71
2021/06/04 12:02:49;;;;;;;2.38;2.15;;;;;;;;;;5095028;28;20077;-71
2021/06/04 12:05:19;;;;;;;3.15;2.67;;;;;;;;;;5076805;28;20016;-71
2021/06/04 12:07:46;;;;;;;3.08;2.47;;;;;;;;;;5094549;28;20020;-71
2021/06/04 12:10:12;;;;;;;5.40;3.03;;;;;;;;;;5076784;28;20531;-71
2021/06/04 12:12:50;;;;;;;2.72;2.50;;;;;;;;;;5076461;28;20053;-71
2021/06/04 12:15:19;;;;;;;2.78;2.45;;;;;;;;;;5094841;28;20025;-71
2021/06/04 12:17:44;;;;;;;3.03;2.40;;;;;;;;;;5076624;28;20023;-71
2021/06/04 12:20:21;;;;;;;8.30;3.75;;;;;;;;;;5094534;28;20455;-71
2021/06/04 12:22:48;;;;;;;4.80;3.67;;;;;;;;;;5094690;28;20028;-71
2021/06/04 12:25:34;;;;;;;19.75;10.52;;;;;;;;;;5094555;28;20016;-71
2021/06/04 12:28:10;;;;;;;11.32;6.25;;;;;;;;;;5094585;28;20028;-71
2021/06/04 12:31:02;;;;;;;6.35;4.18;;;;;;;;;;5094488;28;20026;-71
2021/06/04 12:33:43;;;;;;;10.02;4.57;;;;;;;;;;5090178;28;20513;-71
2021/06/04 12:36:27;;;;;;;11.63;7.38;;;;;;;;;;5094261;28;20028;-71
2021/06/04 12:38:53;;;;;;;4.63;3.83;;;;;;;;;;5094271;28;20080;-71
2021/06/04 12:41:22;;;;;;;3.17;2.97;;;;;;;;;;5075966;28;20431;-71
2021/06/04 12:43:52;;;;;;;3.88;3.00;;;;;;;;;;5093724;28;20043;-71
2021/06/04 12:46:18;;;;;;;5.32;2.90;;;;;;;;;;5094180;28;20062;-71
2021/06/04 12:48:44;;;;;;;13.38;5.18;;;;;;;;;;5094095;28;20462;-71
2021/06/04 12:51:10;;;;;;;6.30;4.10;;;;;;;;;;5093889;28;20036;-71
2021/06/04 12:53:40;;;;;;;5.70;3.72;;;;;;;;;;5075929;28;20012;-71
2021/06/04 12:56:32;;;;;;;4.43;2.75;;;;;;;;;;5093652;28;20103;-71
2021/06/04 12:59:04;;;;;;;5.72;4.57;;;;;;;;;;5090022;28;20488;-71
2021/06/04 13:01:30;;;;;;;9.73;5.88;;;;;;;;;;5075859;28;20024;-71
2021/06/04 13:03:56;;;;;;;4.53;3.83;;;;;;;;;;5059096;28;20612;-71
2021/06/04 13:06:21;;;;;;;3.85;2.88;;;;;;;;;;5093855;28;20119;-71
2021/06/04 13:08:48;;;;;;;7.68;3.30;;;;;;;;;;5093868;28;20024;-71
2021/06/04 13:11:14;;;;;;;2.85;2.65;;;;;;;;;;5093673;28;20486;-71
2021/06/04 13:13:43;;;;;;;9.32;5.60;;;;;;;;;;5093566;28;20031;-71
2021/06/04 13:16:28;;;;;;;2.58;2.38;;;;;;;;;;5093697;28;20028;-71
2021/06/04 13:18:56;;;;;;;4.13;2.60;;;;;;;;;;5093691;28;20389;-71
2021/06/04 13:21:25;;;;;;;5.85;3.65;;;;;;;;;;5092757;28;20012;-71
2021/06/04 13:23:58;;;;;;;2.97;2.72;;;;;;;;;;5093428;28;20085;-71
2021/06/04 13:26:25;;;;;;;4.03;2.63;;;;;;;;;;5093511;28;20052;-71
2021/06/04 13:28:53;;;;;;;3.38;2.75;;;;;;;;;;5093457;28;20024;-71
2021/06/04 13:31:21;;;;;;;3.17;2.88;;;;;;;;;;5093488;28;20035;-71
2021/06/04 13:33:52;;;;;;;7.38;4.65;;;;;;;;;;5093384;28;20485;-71
2021/06/04 13:36:17;;;;;;;;;;;;;;;;;;5093737;28;20425;-71
2021/06/04 13:38:54;;;;;;;9.20;4.72;;;;;;;;;;5075093;28;19911;-71
2021/06/04 13:41:23;;;;;;;3.30;3.00;;;;;;;;;;5070799;28;20551;-71
2021/06/04 13:43:52;;;;;;;5.10;2.65;;;;;;;;;;5074945;28;20052;-71
2021/06/04 13:46:20;;;;;;;2.88;2.20;;;;;;;;;;5074998;28;20474;-71
2021/06/04 13:49:04;;;;;;;4.63;3.30;;;;;;;;;;5093281;28;20122;-71
2021/06/04 13:51:54;;;;;;;2.53;2.42;;;;;;;;;;5091713;28;20032;-71
2021/06/04 13:54:32;;;;;;;2.80;2.60;;;;;;;;;;5082440;28;20032;-71
2021/06/04 13:57:14;;;;;;;4.90;2.80;;;;;;;;;;5093182;28;20031;-71
2021/06/04 13:59:40;;;;;;;3.72;2.90;;;;;;;;;;5093235;28;20047;-71
2021/06/04 14:02:12;;;;;;;4.18;3.00;;;;;;;;;;5093032;28;20048;-71
2021/06/04 14:04:43;;;;;;;3.30;2.40;;;;;;;;;;5093048;28;20078;-71
2021/06/04 14:07:23;;;;;;;4.43;2.20;;;;;;;;;;5093145;28;20032;-71
2021/06/04 14:09:48;;;;;;;5.03;3.20;;;;;;;;;;5093225;28;20025;-71
2021/06/04 14:12:17;;;;;;;3.55;2.70;;;;;;;;;;5092915;28;20020;-71
2021/06/04 14:14:43;;;;;;;2.50;2.33;;;;;;;;;;5092935;28;20032;-71
2021/06/04 14:17:35;;;;;;;3.45;2.50;;;;;;;;;;5074908;28;20051;-71
2021/06/04 14:20:06;;;;;;;2.72;2.47;;;;;;;;;;5089101;28;20079;-71
2021/06/04 14:22:39;;;;;;;5.20;3.53;;;;;;;;;;5074987;28;20036;-71
2021/06/04 14:25:14;;;;;;;7.47;4.65;;;;;;;;;;5092826;28;20024;-71
2021/06/04 14:27:44;;;;;;;3.78;2.65;;;;;;;;;;5092890;28;20111;-71
2021/06/04 14:30:09;;;;;;;;;;;;;;;;;;5093377;28;20474;-71
2021/06/04 14:32:35;;;;;;;2.35;2.15;;;;;;;;;;5095780;28;19926;-71
2021/06/04 14:35:07;;;;;;;3.80;3.45;;;;;;;;;;5096713;28;20024;-71
2021/06/04 14:37:38;;;;;;;4.90;3.28;;;;;;;;;;5096622;28;20111;-71
2021/06/04 14:40:14;;;;;;;41.28;16.85;;;;;;;;;;5078396;28;20059;-71
2021/06/04 14:42:40;;;;;;;58.00;24.65;;;;;;;;;;5096344;28;20382;-72
2021/06/04 14:45:06;;;;;;;7.05;3.15;;;;;;;;;;5096147;28;20028;-71
2021/06/04 14:47:34;;;;;;;8.02;3.40;;;;;;;;;;5078071;28;20429;-71
2021/06/04 14:50:00;;;;;;;4.70;2.33;;;;;;;;;;5096403;28;20461;-71
2021/06/04 14:52:26;;;;;;;3.17;2.40;;;;;;;;;;5096396;28;20424;-71
2021/06/04 14:54:52;;;;;;;2.92;2.70;;;;;;;;;;5078327;28;20035;-71
2021/06/04 14:57:18;;;;;;;3.92;2.72;;;;;;;;;;5096704;28;20043;-71
2021/06/04 14:59:43;;;;;;;5.22;2.72;;;;;;;;;;5094905;28;20438;-71